Time;durP1;ratioP1;P1;durP2;ratioP2;P2;SDS_P1;SDS_P2;PMS_P1;PMS_P2;Temp;Humidity;BMP_temperature;BMP_pressure;BME280_temperature;BME280_humidity;BME280_pressure;Samples;Min_cycle;Max_cycle;Signal;HPM_P1;HPM_P2
2022/01/23 00:00:49;;;;;;;33.40;18.23;;;;;;;;;;4956231;28;20236;-65
2022/01/23 00:03:18;;;;;;;34.60;17.53;;;;;;;;;;4952700;28;20615;-63
2022/01/23 00:05:47;;;;;;;41.17;21.63;;;;;;;;;;4956324;28;20734;-64
2022/01/23 00:08:18;;;;;;;36.63;17.27;;;;;;;;;;4962926;28;20619;-65
2022/01/23 00:10:55;;;;;;;35.40;17.47;;;;;;;;;;4948293;28;20232;-64
2022/01/23 00:13:36;;;;;;;30.73;15.47;;;;;;;;;;4962558;28;20226;-64
2022/01/23 00:18:53;;;;;;;29.13;13.60;;;;;;;;;;4960202;28;20592;-64
2022/01/23 00:21:23;;;;;;;26.27;13.23;;;;;;;;;;4965063;28;20201;-62
2022/01/23 00:31:52;;;;;;;30.63;14.23;;;;;;;;;;4955568;28;20206;-64
2022/01/23 00:34:20;;;;;;;26.47;13.97;;;;;;;;;;4956453;28;20204;-64
2022/01/23 00:36:47;;;;;;;27.40;12.67;;;;;;;;;;4960710;28;20206;-63
2022/01/23 00:39:16;;;;;;;26.00;13.60;;;;;;;;;;4962388;28;20232;-62
2022/01/23 00:41:44;;;;;;;28.27;15.80;;;;;;;;;;4955649;28;20271;-63
2022/01/23 00:44:11;;;;;;;26.33;14.67;;;;;;;;;;4940145;28;20583;-63
2022/01/23 00:46:44;;;;;;;23.53;14.07;;;;;;;;;;4962849;28;20324;-64
2022/01/23 00:51:40;;;;;;;26.83;15.20;;;;;;;;;;4952624;28;20253;-64
2022/01/23 00:54:09;;;;;;;26.23;13.37;;;;;;;;;;4956897;28;20200;-63
2022/01/23 00:56:37;;;;;;;24.63;13.63;;;;;;;;;;4953460;28;20213;-63
2022/01/23 00:59:05;;;;;;;26.63;12.83;;;;;;;;;;4957419;28;20217;-62
2022/01/23 01:01:32;;;;;;;24.97;13.77;;;;;;;;;;4960222;28;20228;-64
2022/01/23 01:04:00;;;;;;;24.27;13.33;;;;;;;;;;4957158;28;20232;-64
2022/01/23 01:06:27;;;;;;;22.43;12.20;;;;;;;;;;4961903;28;20228;-63
2022/01/23 01:09:01;;;;;;;24.50;13.83;;;;;;;;;;4954307;28;20224;-64
2022/01/23 01:16:58;;;;;;;23.83;12.80;;;;;;;;;;4961154;28;20218;-63
2022/01/23 01:36:24;;;;;;;37.67;25.53;;;;;;;;;;4962564;28;20205;-63
2022/01/23 01:38:54;;;;;;;22.40;14.17;;;;;;;;;;4948293;28;20220;-64
2022/01/23 01:41:22;;;;;;;23.37;13.80;;;;;;;;;;4950001;28;20281;-63
2022/01/23 01:43:50;;;;;;;21.23;11.70;;;;;;;;;;4957665;28;20205;-63
2022/01/23 01:46:18;;;;;;;29.50;15.77;;;;;;;;;;4948505;28;20229;-62
2022/01/23 01:48:46;;;;;;;26.00;15.13;;;;;;;;;;4955462;28;20220;-63
2022/01/23 01:51:17;;;;;;;26.53;14.63;;;;;;;;;;4949043;28;20233;-62
2022/01/23 01:53:52;;;;;;;27.17;15.03;;;;;;;;;;4955041;28;21040;-62
2022/01/23 01:56:20;;;;;;;23.27;14.17;;;;;;;;;;4949828;28;20204;-64
2022/01/23 02:12:32;;;;;;;22.07;12.97;;;;;;;;;;4945744;28;21423;-61
2022/01/23 02:56:18;;;;;;;18.27;11.30;;;;;;;;;;4953079;28;20211;-62
2022/01/23 02:58:58;;;;;;;19.37;11.43;;;;;;;;;;4955121;28;20295;-63
2022/01/23 03:01:31;;;;;;;18.90;11.23;;;;;;;;;;4958824;28;20224;-62
2022/01/23 03:04:08;;;;;;;19.97;11.70;;;;;;;;;;4951954;28;20236;-62
2022/01/23 03:12:34;;;;;;;19.30;12.17;;;;;;;;;;4945623;28;24980;-64
2022/01/23 03:15:20;;;;;;;14.93;9.63;;;;;;;;;;4955157;28;20540;-63
2022/01/23 03:29:19;;;;;;;19.33;10.50;;;;;;;;;;4947018;28;20205;-63
2022/01/23 03:32:01;;;;;;;19.80;10.90;;;;;;;;;;4948901;28;20208;-62
2022/01/23 03:34:29;;;;;;;21.77;12.70;;;;;;;;;;4942812;28;20213;-62
2022/01/23 03:36:58;;;;;;;22.03;12.17;;;;;;;;;;4943740;28;20228;-64
2022/01/23 03:39:26;;;;;;;18.93;11.77;;;;;;;;;;4947625;28;20236;-63
2022/01/23 03:41:53;;;;;;;21.17;11.93;;;;;;;;;;4950978;28;20594;-62
2022/01/23 03:44:22;;;;;;;18.40;11.80;;;;;;;;;;4954436;28;20209;-64
2022/01/23 03:49:38;;;;;;;17.30;11.63;;;;;;;;;;4945248;28;20233;-63
2022/01/23 03:52:07;;;;;;;18.50;12.00;;;;;;;;;;4947190;28;20201;-63
2022/01/23 03:54:35;;;;;;;16.87;11.47;;;;;;;;;;4955386;28;20233;-63
2022/01/23 03:57:03;;;;;;;17.93;11.07;;;;;;;;;;4952414;28;20212;-63
2022/01/23 03:59:31;;;;;;;20.17;12.00;;;;;;;;;;4951940;28;20256;-63
2022/01/23 04:01:58;;;;;;;18.37;10.83;;;;;;;;;;4951693;28;20228;-63
2022/01/23 04:07:04;;;;;;;20.87;12.00;;;;;;;;;;4947334;28;20232;-62
2022/01/23 04:09:32;;;;;;;19.63;11.73;;;;;;;;;;4950021;28;20228;-64
2022/01/23 04:12:01;;;;;;;20.63;11.40;;;;;;;;;;4946628;28;20689;-63
2022/01/23 04:14:29;;;;;;;22.77;11.47;;;;;;;;;;4954742;28;20216;-63
2022/01/23 04:18:01;;;;;;;20.37;11.87;;;;;;;;;;4945029;28;20717;-61
2022/01/23 04:33:59;;;;;;;19.23;12.30;;;;;;;;;;4950481;28;20300;-64
2022/01/23 04:45:35;;;;;;;21.97;12.33;;;;;;;;;;4946361;28;20841;-62
2022/01/23 04:48:34;;;;;;;24.13;13.90;;;;;;;;;;4944213;28;20257;-63
2022/01/23 05:01:51;;;;;;;32.30;17.07;;;;;;;;;;4947015;28;20201;-63
2022/01/23 05:04:24;;;;;;;24.67;14.53;;;;;;;;;;4952251;28;20308;-62
2022/01/23 05:07:10;;;;;;;25.83;15.37;;;;;;;;;;4949680;28;20292;-64
2022/01/23 05:09:37;;;;;;;23.57;13.53;;;;;;;;;;4949149;28;20224;-61
2022/01/23 05:12:06;;;;;;;22.13;13.27;;;;;;;;;;4952535;28;20304;-61
2022/01/23 05:14:38;;;;;;;20.93;12.87;;;;;;;;;;4950640;28;20710;-62
2022/01/23 05:17:07;;;;;;;22.93;12.67;;;;;;;;;;4948315;28;20267;-62
2022/01/23 05:19:35;;;;;;;21.73;12.80;;;;;;;;;;4950438;28;20260;-61
2022/01/23 05:24:39;;;;;;;25.10;12.67;;;;;;;;;;4951622;28;20717;-61
2022/01/23 05:27:08;;;;;;;23.77;13.30;;;;;;;;;;4954112;28;20250;-62
2022/01/23 05:29:36;;;;;;;21.17;12.93;;;;;;;;;;4951737;28;22936;-62
2022/01/23 05:32:05;;;;;;;22.43;12.27;;;;;;;;;;4948937;28;20207;-64
2022/01/23 05:34:33;;;;;;;23.83;13.57;;;;;;;;;;4951921;28;20205;-64
2022/01/23 05:37:00;;;;;;;25.43;13.97;;;;;;;;;;4948459;28;20227;-64
2022/01/23 05:39:32;;;;;;;23.83;13.77;;;;;;;;;;4950554;28;20237;-61
2022/01/23 05:42:06;;;;;;;24.27;13.03;;;;;;;;;;4953293;28;20220;-62
2022/01/23 05:44:35;;;;;;;24.63;14.13;;;;;;;;;;4950560;28;20200;-64
2022/01/23 05:47:02;;;;;;;26.20;15.27;;;;;;;;;;4956957;28;20232;-64
2022/01/23 05:49:30;;;;;;;26.20;15.37;;;;;;;;;;4949633;28;20241;-63
2022/01/23 05:51:58;;;;;;;46.37;22.93;;;;;;;;;;4945216;28;20259;-63
2022/01/23 05:54:26;;;;;;;35.57;18.03;;;;;;;;;;4950800;28;20196;-64
2022/01/23 05:56:53;;;;;;;43.90;20.30;;;;;;;;;;4953373;28;20212;-64
2022/01/23 05:59:21;;;;;;;25.53;13.83;;;;;;;;;;4955445;28;20240;-64
2022/01/23 06:01:55;;;;;;;26.83;15.00;;;;;;;;;;4950420;28;20689;-63
2022/01/23 06:04:27;;;;;;;38.93;19.63;;;;;;;;;;4954688;28;20274;-64
2022/01/23 06:06:56;;;;;;;22.33;12.27;;;;;;;;;;4949348;28;20213;-62
2022/01/23 06:09:23;;;;;;;24.30;12.77;;;;;;;;;;4948597;28;20221;-64
2022/01/23 06:11:51;;;;;;;22.83;12.87;;;;;;;;;;4947279;28;20671;-64
2022/01/23 06:14:19;;;;;;;24.20;13.73;;;;;;;;;;4956285;28;20264;-62
2022/01/23 06:16:46;;;;;;;23.27;12.97;;;;;;;;;;4953149;28;20296;-63
2022/01/23 06:19:14;;;;;;;23.43;13.93;;;;;;;;;;4950096;28;20257;-64
2022/01/23 06:21:43;;;;;;;25.03;13.73;;;;;;;;;;4947747;28;20220;-64
2022/01/23 06:24:21;;;;;;;21.37;12.73;;;;;;;;;;4948366;28;20216;-63
2022/01/23 06:26:52;;;;;;;22.77;12.60;;;;;;;;;;4947411;28;20658;-65
2022/01/23 06:29:20;;;;;;;24.43;14.03;;;;;;;;;;4952376;28;20880;-63
2022/01/23 06:31:48;;;;;;;19.30;12.20;;;;;;;;;;4943394;28;20209;-62
2022/01/23 06:34:16;;;;;;;21.37;11.57;;;;;;;;;;4946397;28;20204;-64
2022/01/23 06:36:44;;;;;;;23.30;12.67;;;;;;;;;;4949953;28;20209;-61
2022/01/23 06:39:12;;;;;;;25.20;16.07;;;;;;;;;;4944321;28;20222;-62
2022/01/23 06:41:40;;;;;;;26.50;16.20;;;;;;;;;;4949634;28;20260;-62
2022/01/23 06:44:10;;;;;;;25.37;14.50;;;;;;;;;;4948284;28;20772;-61
2022/01/23 06:46:39;;;;;;;24.33;14.30;;;;;;;;;;4965101;28;21057;-62
2022/01/23 06:49:07;;;;;;;24.00;13.57;;;;;;;;;;4951911;28;20320;-61
2022/01/23 06:51:35;;;;;;;25.33;14.53;;;;;;;;;;4965561;28;20690;-62
2022/01/23 06:54:03;;;;;;;53.50;25.27;;;;;;;;;;4950306;28;20213;-61
2022/01/23 06:56:30;;;;;;;42.70;21.20;;;;;;;;;;4946694;28;20956;-63
2022/01/23 06:58:57;;;;;;;33.80;17.03;;;;;;;;;;4946524;28;20738;-63
2022/01/23 07:01:24;;;;;;;32.57;17.97;;;;;;;;;;4947537;28;20209;-63
2022/01/23 07:03:53;;;;;;;30.87;16.87;;;;;;;;;;4949451;28;20307;-61
2022/01/23 07:06:20;;;;;;;18.40;11.73;;;;;;;;;;4951804;28;20625;-64
2022/01/23 07:09:06;;;;;;;24.30;13.70;;;;;;;;;;4950256;28;20228;-63
2022/01/23 07:11:33;;;;;;;22.70;13.03;;;;;;;;;;4955791;28;20206;-63
2022/01/23 07:14:01;;;;;;;23.23;13.73;;;;;;;;;;4947626;28;20242;-63
2022/01/23 07:16:28;;;;;;;25.77;15.80;;;;;;;;;;4951428;28;20339;-64
2022/01/23 07:18:56;;;;;;;21.97;13.73;;;;;;;;;;4949011;28;20228;-63
2022/01/23 07:21:23;;;;;;;21.83;13.23;;;;;;;;;;4949375;28;20233;-63
2022/01/23 07:23:52;;;;;;;21.57;12.77;;;;;;;;;;4950658;28;20300;-63
2022/01/23 07:26:22;;;;;;;23.63;13.77;;;;;;;;;;4941678;28;20635;-62
2022/01/23 07:28:54;;;;;;;22.83;13.40;;;;;;;;;;4946804;28;20239;-61
2022/01/23 07:31:45;;;;;;;23.83;13.60;;;;;;;;;;4953234;28;20225;-63
2022/01/23 07:34:17;;;;;;;21.97;13.10;;;;;;;;;;4954736;28;20217;-61
2022/01/23 07:36:44;;;;;;;19.13;12.67;;;;;;;;;;4948724;28;20232;-63
2022/01/23 07:39:12;;;;;;;22.03;13.03;;;;;;;;;;4952844;28;20222;-63
2022/01/23 07:41:40;;;;;;;23.27;14.03;;;;;;;;;;4947050;28;20260;-62
2022/01/23 07:44:07;;;;;;;20.83;12.80;;;;;;;;;;4950459;28;20217;-61
2022/01/23 07:46:35;;;;;;;24.47;14.37;;;;;;;;;;4949379;28;20220;-63
2022/01/23 07:49:05;;;;;;;28.70;14.67;;;;;;;;;;4949891;28;20240;-64
2022/01/23 07:51:32;;;;;;;23.37;14.33;;;;;;;;;;4949061;28;20204;-64
2022/01/23 07:54:00;;;;;;;23.83;14.73;;;;;;;;;;4943967;28;25228;-63
2022/01/23 07:56:27;;;;;;;21.97;14.20;;;;;;;;;;4938699;28;20807;-64
2022/01/23 07:58:55;;;;;;;24.23;14.17;;;;;;;;;;4950849;28;20221;-63
2022/01/23 08:01:22;;;;;;;25.63;14.73;;;;;;;;;;4950456;28;20320;-62
2022/01/23 08:03:50;;;;;;;22.97;13.83;;;;;;;;;;4947460;28;21358;-63
2022/01/23 08:06:18;;;;;;;26.80;15.17;;;;;;;;;;4942960;28;20213;-61
2022/01/23 08:08:48;;;;;;;23.17;14.60;;;;;;;;;;4946979;28;20256;-64
2022/01/23 08:11:15;;;;;;;25.33;15.10;;;;;;;;;;4945115;28;20597;-62
2022/01/23 08:13:42;;;;;;;24.23;13.80;;;;;;;;;;4937171;28;20579;-64
2022/01/23 08:16:10;;;;;;;25.70;15.60;;;;;;;;;;4946160;28;20574;-62
2022/01/23 08:18:38;;;;;;;28.67;14.13;;;;;;;;;;4944492;28;20227;-63
2022/01/23 08:21:05;;;;;;;25.53;14.80;;;;;;;;;;4940731;28;20240;-62
2022/01/23 08:23:33;;;;;;;26.40;15.43;;;;;;;;;;4939887;28;20208;-64
2022/01/23 08:26:01;;;;;;;27.13;14.33;;;;;;;;;;4948070;28;20300;-63
2022/01/23 08:28:28;;;;;;;27.03;15.13;;;;;;;;;;4949908;28;20357;-63
2022/01/23 08:30:56;;;;;;;26.87;15.67;;;;;;;;;;4958696;28;20226;-63
2022/01/23 08:33:24;;;;;;;25.23;16.23;;;;;;;;;;4953877;28;20231;-63
2022/01/23 08:35:56;;;;;;;25.03;14.70;;;;;;;;;;4945046;28;20204;-61
2022/01/23 08:38:24;;;;;;;28.83;14.77;;;;;;;;;;4946245;28;20221;-63
2022/01/23 08:43:40;;;;;;;21.03;13.07;;;;;;;;;;4948256;28;20789;-64
2022/01/23 08:46:09;;;;;;;22.57;14.50;;;;;;;;;;4948274;28;21163;-64
2022/01/23 08:48:36;;;;;;;25.57;14.73;;;;;;;;;;4948112;28;20385;-64
2022/01/23 08:51:04;;;;;;;25.90;15.10;;;;;;;;;;4942813;28;20355;-65
2022/01/23 08:53:31;;;;;;;21.87;14.00;;;;;;;;;;4946224;28;20201;-62
2022/01/23 08:56:00;;;;;;;22.23;13.47;;;;;;;;;;4949368;28;20208;-62
2022/01/23 08:58:28;;;;;;;34.77;19.17;;;;;;;;;;4937834;28;20225;-62
2022/01/23 09:00:58;;;;;;;34.30;20.27;;;;;;;;;;4950413;28;20241;-63
2022/01/23 09:03:25;;;;;;;26.50;15.53;;;;;;;;;;4953065;28;20220;-63
2022/01/23 09:05:53;;;;;;;21.97;14.33;;;;;;;;;;4954696;28;20209;-64
2022/01/23 09:08:21;;;;;;;21.87;13.90;;;;;;;;;;4959440;28;20975;-63
2022/01/23 09:10:55;;;;;;;18.67;12.50;;;;;;;;;;4948619;28;20224;-63
2022/01/23 09:16:17;;;;;;;16.20;10.50;;;;;;;;;;4926564;28;20204;-64
2022/01/23 09:18:45;;;;;;;15.67;10.07;;;;;;;;;;4944339;28;20295;-64
2022/01/23 09:21:13;;;;;;;15.73;10.13;;;;;;;;;;4931803;28;20229;-64
2022/01/23 09:23:41;;;;;;;18.43;11.87;;;;;;;;;;4947223;28;20225;-61
2022/01/23 09:26:10;;;;;;;19.57;13.07;;;;;;;;;;4962754;28;20210;-62
2022/01/23 09:28:40;;;;;;;20.77;13.60;;;;;;;;;;4967813;28;20232;-63
2022/01/23 09:31:07;;;;;;;19.63;13.70;;;;;;;;;;4968543;28;20225;-62
2022/01/23 09:33:37;;;;;;;16.63;11.33;;;;;;;;;;4971581;28;20200;-63
2022/01/23 09:36:05;;;;;;;19.37;13.70;;;;;;;;;;4966559;28;20663;-63
2022/01/23 09:38:35;;;;;;;19.53;13.70;;;;;;;;;;4960272;28;20227;-62
2022/01/23 09:41:03;;;;;;;20.37;14.70;;;;;;;;;;4956946;28;20236;-62
2022/01/23 09:43:33;;;;;;;18.00;12.77;;;;;;;;;;4968134;28;20603;-62
2022/01/23 09:46:05;;;;;;;16.17;11.73;;;;;;;;;;4963695;28;20682;-64
2022/01/23 09:48:33;;;;;;;19.27;13.73;;;;;;;;;;4964759;28;20233;-63
2022/01/23 09:51:02;;;;;;;12.70;9.67;;;;;;;;;;4960688;28;20233;-64
2022/01/23 09:53:30;;;;;;;13.00;10.53;;;;;;;;;;4959956;28;20212;-62
2022/01/23 09:56:04;;;;;;;14.27;9.77;;;;;;;;;;4964301;28;20679;-62
2022/01/23 09:58:37;;;;;;;12.27;9.33;;;;;;;;;;4973709;28;20209;-62
2022/01/23 10:01:05;;;;;;;13.83;11.20;;;;;;;;;;4962422;28;20237;-62
2022/01/23 10:03:34;;;;;;;10.13;8.27;;;;;;;;;;4968154;28;20292;-63
2022/01/23 10:06:03;;;;;;;11.87;8.60;;;;;;;;;;4959769;28;20205;-62
2022/01/23 10:08:31;;;;;;;9.90;7.97;;;;;;;;;;4965085;28;20235;-64
2022/01/23 10:10:58;;;;;;;11.47;8.43;;;;;;;;;;4960629;28;20229;-62
2022/01/23 10:13:27;;;;;;;11.13;8.43;;;;;;;;;;4965062;28;20209;-64
2022/01/23 10:15:54;;;;;;;10.37;7.77;;;;;;;;;;4964054;28;20210;-62
2022/01/23 10:18:22;;;;;;;10.30;7.63;;;;;;;;;;4961173;28;20219;-63
2022/01/23 10:20:49;;;;;;;12.00;8.80;;;;;;;;;;4957021;28;20694;-64
2022/01/23 10:23:20;;;;;;;9.10;6.30;;;;;;;;;;4947938;28;20205;-63
2022/01/23 10:25:49;;;;;;;5.83;5.23;;;;;;;;;;4951584;28;20290;-63
2022/01/23 10:28:19;;;;;;;5.77;4.60;;;;;;;;;;4968263;28;20231;-62
2022/01/23 10:30:56;;;;;;;6.27;4.57;;;;;;;;;;4965136;28;20706;-64
2022/01/23 10:33:28;;;;;;;7.20;5.53;;;;;;;;;;4966572;28;20208;-64
2022/01/23 10:36:05;;;;;;;8.67;5.33;;;;;;;;;;4955980;28;20606;-63
2022/01/23 10:38:36;;;;;;;6.57;5.17;;;;;;;;;;4962352;28;20287;-64
2022/01/23 10:41:27;;;;;;;7.63;5.33;;;;;;;;;;4959044;28;20280;-63
2022/01/23 10:49:58;;;;;;;16.60;6.20;;;;;;;;;;4970650;28;20263;-64
2022/01/23 10:52:37;;;;;;;9.90;5.07;;;;;;;;;;4967709;28;20293;-64
2022/01/23 10:55:07;;;;;;;5.17;4.30;;;;;;;;;;4962443;28;20613;-62
2022/01/23 10:57:39;;;;;;;6.50;4.90;;;;;;;;;;4963511;28;20217;-64
2022/01/23 11:00:08;;;;;;;6.10;4.80;;;;;;;;;;4960565;28;20232;-64
2022/01/23 11:02:40;;;;;;;3.30;3.00;;;;;;;;;;4945341;28;20224;-65
2022/01/23 11:05:10;;;;;;;5.20;4.20;;;;;;;;;;4950330;28;20219;-64
2022/01/23 11:07:39;;;;;;;3.80;3.37;;;;;;;;;;4960663;28;20587;-62
2022/01/23 11:10:13;;;;;;;6.70;5.20;;;;;;;;;;4960479;28;20294;-64
2022/01/23 11:18:05;;;;;;;12.67;8.23;;;;;;;;;;4958828;28;21675;-64
2022/01/23 11:20:32;;;;;;;17.60;12.87;;;;;;;;;;4959292;28;20227;-63
2022/01/23 11:23:12;;;;;;;6.47;5.17;;;;;;;;;;4944789;28;20208;-61
2022/01/23 11:25:40;;;;;;;3.40;3.10;;;;;;;;;;4949105;28;20702;-65
2022/01/23 11:28:08;;;;;;;3.70;3.17;;;;;;;;;;4955395;28;20217;-64
2022/01/23 11:30:38;;;;;;;4.97;4.30;;;;;;;;;;4949737;28;20315;-67
2022/01/23 11:33:08;;;;;;;5.87;4.83;;;;;;;;;;4951903;28;20209;-63
2022/01/23 11:35:36;;;;;;;6.70;5.83;;;;;;;;;;4958663;28;20212;-65
2022/01/23 11:38:10;;;;;;;6.33;5.03;;;;;;;;;;4950598;28;20223;-63
2022/01/23 11:54:45;;;;;;;3.73;3.43;;;;;;;;;;4971661;28;20869;-66
2022/01/23 11:57:32;;;;;;;2.97;2.77;;;;;;;;;;4960280;28;20214;-65
2022/01/23 12:00:02;;;;;;;3.73;3.20;;;;;;;;;;4957165;28;20221;-64
2022/01/23 12:02:40;;;;;;;5.73;4.07;;;;;;;;;;4951438;28;20215;-64
2022/01/23 12:05:18;;;;;;;3.90;3.33;;;;;;;;;;4947361;28;20215;-64
2022/01/23 12:08:08;;;;;;;3.93;3.30;;;;;;;;;;4950989;28;20301;-64
2022/01/23 12:10:51;;;;;;;5.30;4.17;;;;;;;;;;4956816;28;20235;-64
2022/01/23 12:13:54;;;;;;;2.57;2.37;;;;;;;;;;4956669;28;20271;-63
2022/01/23 12:18:50;;;;;;;3.03;2.70;;;;;;;;;;4962217;28;20300;-64
2022/01/23 12:21:31;;;;;;;3.80;3.37;;;;;;;;;;4958855;28;20247;-65
2022/01/23 12:24:00;;;;;;;2.93;2.63;;;;;;;;;;4955439;28;20683;-63
2022/01/23 12:26:27;;;;;;;3.00;2.80;;;;;;;;;;4958959;28;20240;-62
2022/01/23 12:28:56;;;;;;;3.03;2.83;;;;;;;;;;4955296;28;20291;-65
2022/01/23 12:31:25;;;;;;;3.73;2.87;;;;;;;;;;4953382;28;20225;-64
2022/01/23 12:33:56;;;;;;;14.47;9.10;;;;;;;;;;4960470;28;20263;-63
2022/01/23 12:36:23;;;;;;;3.83;3.50;;;;;;;;;;4963496;28;20206;-62
2022/01/23 12:38:53;;;;;;;3.40;3.10;;;;;;;;;;4973946;28;20217;-65
2022/01/23 12:41:40;;;;;;;3.30;3.10;;;;;;;;;;4961430;28;20245;-63
2022/01/23 12:44:08;;;;;;;4.00;3.40;;;;;;;;;;4960402;28;20204;-63
2022/01/23 12:46:40;;;;;;;4.30;3.50;;;;;;;;;;4950408;28;20580;-65
2022/01/23 12:49:26;;;;;;;3.67;3.33;;;;;;;;;;4957026;28;20217;-61
2022/01/23 12:52:07;;;;;;;6.40;3.77;;;;;;;;;;4955006;28;20209;-65
2022/01/23 12:54:47;;;;;;;3.70;3.40;;;;;;;;;;4951110;28;20216;-64
2022/01/23 12:57:16;;;;;;;3.50;3.20;;;;;;;;;;4956774;28;20602;-63
2022/01/23 12:59:51;;;;;;;4.63;3.23;;;;;;;;;;4961318;28;20235;-63
2022/01/23 13:02:20;;;;;;;3.40;3.10;;;;;;;;;;4952699;28;20679;-64
2022/01/23 13:04:53;;;;;;;3.73;3.43;;;;;;;;;;4955173;28;20217;-62
2022/01/23 13:32:12;;;;;;;8.87;5.87;;;;;;;;;;4955218;28;20209;-62
2022/01/23 13:34:48;;;;;;;5.60;4.57;;;;;;;;;;4951775;28;20316;-65
2022/01/23 13:37:21;;;;;;;3.50;3.00;;;;;;;;;;4957675;28;20225;-64
2022/01/23 13:39:51;;;;;;;3.80;3.50;;;;;;;;;;4953981;28;21158;-64
2022/01/23 13:54:05;;;;;;;5.73;4.23;;;;;;;;;;4952631;28;20700;-65
2022/01/23 13:59:28;;;;;;;6.73;4.67;;;;;;;;;;4966354;28;20232;-66
2022/01/23 14:04:31;;;;;;;10.63;7.33;;;;;;;;;;4959189;28;20531;-65
2022/01/23 14:06:58;;;;;;;7.50;5.90;;;;;;;;;;4955463;28;20213;-65
2022/01/23 14:09:26;;;;;;;10.87;6.27;;;;;;;;;;4941378;28;20369;-63
2022/01/23 14:11:54;;;;;;;7.13;5.53;;;;;;;;;;4962503;28;20221;-65
2022/01/23 14:14:24;;;;;;;17.80;12.77;;;;;;;;;;4944841;28;20224;-64
2022/01/23 14:16:53;;;;;;;12.27;9.50;;;;;;;;;;4944641;28;20268;-65
2022/01/23 14:19:25;;;;;;;7.00;5.80;;;;;;;;;;4944699;28;20214;-64
2022/01/23 14:21:59;;;;;;;5.43;4.10;;;;;;;;;;4952791;28;20212;-64
2022/01/23 14:24:31;;;;;;;6.50;4.87;;;;;;;;;;4958081;28;20217;-64
2022/01/23 14:27:00;;;;;;;7.57;5.73;;;;;;;;;;4954703;28;20224;-63
2022/01/23 14:29:32;;;;;;;10.20;5.67;;;;;;;;;;4950307;28;20240;-65
2022/01/23 14:32:13;;;;;;;12.20;6.70;;;;;;;;;;4950225;28;20217;-64
2022/01/23 14:34:41;;;;;;;8.33;5.77;;;;;;;;;;4950497;28;20207;-65
2022/01/23 14:37:09;;;;;;;5.23;4.40;;;;;;;;;;4945358;28;20306;-64
2022/01/23 14:39:37;;;;;;;5.70;4.57;;;;;;;;;;4946827;28;20241;-66
2022/01/23 14:42:15;;;;;;;6.00;4.87;;;;;;;;;;4951014;28;20209;-65
2022/01/23 14:44:43;;;;;;;9.43;6.40;;;;;;;;;;4946704;28;20205;-66
2022/01/23 14:47:11;;;;;;;17.87;13.27;;;;;;;;;;4947942;28;20213;-66
2022/01/23 14:49:42;;;;;;;22.30;17.07;;;;;;;;;;4944822;28;20245;-67
2022/01/23 14:52:13;;;;;;;30.30;18.67;;;;;;;;;;4953175;28;20686;-68
2022/01/23 14:54:41;;;;;;;26.67;15.97;;;;;;;;;;4948286;28;22599;-67
2022/01/23 14:57:12;;;;;;;20.93;14.20;;;;;;;;;;4947810;28;20310;-67
2022/01/23 14:59:39;;;;;;;13.33;10.40;;;;;;;;;;4938524;28;20991;-66
2022/01/23 15:02:08;;;;;;;8.30;7.37;;;;;;;;;;4953900;28;20213;-65
2022/01/23 15:04:39;;;;;;;9.20;7.47;;;;;;;;;;4947275;28;20217;-67
2022/01/23 15:07:13;;;;;;;9.40;7.13;;;;;;;;;;4947028;28;20220;-68
2022/01/23 15:09:41;;;;;;;7.17;6.40;;;;;;;;;;4967295;28;20636;-65
2022/01/23 15:12:08;;;;;;;9.43;7.27;;;;;;;;;;4965265;28;20721;-65
2022/01/23 15:14:36;;;;;;;8.97;6.90;;;;;;;;;;4968378;28;20248;-66
2022/01/23 15:17:04;;;;;;;8.93;6.83;;;;;;;;;;4968105;28;20208;-65
2022/01/23 15:19:31;;;;;;;9.67;5.67;;;;;;;;;;4961410;28;20673;-64
2022/01/23 15:21:59;;;;;;;7.40;5.70;;;;;;;;;;4965705;28;20300;-65
2022/01/23 15:24:27;;;;;;;6.60;5.80;;;;;;;;;;4964923;28;20217;-65
2022/01/23 15:26:55;;;;;;;16.13;10.93;;;;;;;;;;4962205;28;20267;-64
2022/01/23 15:29:22;;;;;;;12.67;9.17;;;;;;;;;;4957099;28;23006;-65
2022/01/23 15:31:50;;;;;;;12.50;8.90;;;;;;;;;;4951204;28;20213;-65
2022/01/23 15:34:19;;;;;;;12.50;9.17;;;;;;;;;;4958409;28;20205;-64
2022/01/23 15:36:47;;;;;;;6.60;5.50;;;;;;;;;;4955409;28;20228;-66
2022/01/23 15:39:15;;;;;;;6.73;5.73;;;;;;;;;;4947873;28;20667;-64
2022/01/23 15:41:43;;;;;;;7.07;6.37;;;;;;;;;;4948233;28;20209;-65
2022/01/23 15:44:11;;;;;;;14.97;13.37;;;;;;;;;;4951062;28;20291;-66
2022/01/23 15:46:38;;;;;;;11.07;7.93;;;;;;;;;;4963603;28;20607;-64
2022/01/23 15:49:06;;;;;;;10.20;8.10;;;;;;;;;;4974939;28;20272;-66
2022/01/23 15:51:34;;;;;;;23.43;14.17;;;;;;;;;;4965111;28;20264;-64
2022/01/23 15:54:02;;;;;;;25.70;15.40;;;;;;;;;;4955961;28;20211;-65
2022/01/23 15:56:30;;;;;;;16.73;11.77;;;;;;;;;;4949936;28;20213;-64
2022/01/23 15:58:57;;;;;;;10.13;8.00;;;;;;;;;;4955466;28;20213;-66
2022/01/23 16:01:25;;;;;;;9.70;8.00;;;;;;;;;;4956511;28;20243;-66
2022/01/23 16:03:53;;;;;;;14.20;10.13;;;;;;;;;;4962584;28;20209;-66
2022/01/23 16:06:20;;;;;;;15.97;11.93;;;;;;;;;;4949692;28;20213;-65
2022/01/23 16:08:50;;;;;;;13.73;9.87;;;;;;;;;;4964923;28;20206;-65
2022/01/23 16:11:18;;;;;;;16.30;10.37;;;;;;;;;;4953826;28;20241;-65
2022/01/23 16:13:46;;;;;;;21.93;15.37;;;;;;;;;;4947279;28;20581;-65
2022/01/23 16:16:14;;;;;;;41.37;21.97;;;;;;;;;;4964196;28;20659;-66
2022/01/23 16:18:41;;;;;;;11.17;8.97;;;;;;;;;;4969523;28;20251;-67
2022/01/23 16:21:09;;;;;;;10.70;7.70;;;;;;;;;;4958264;28;20343;-64
2022/01/23 16:23:37;;;;;;;12.10;7.53;;;;;;;;;;4950693;28;20217;-64
2022/01/23 16:26:12;;;;;;;12.53;7.50;;;;;;;;;;4961863;28;20212;-65
2022/01/23 16:28:40;;;;;;;16.43;8.50;;;;;;;;;;4958684;28;20552;-65
2022/01/23 16:31:08;;;;;;;13.20;8.63;;;;;;;;;;4957402;28;20233;-64
2022/01/23 16:33:35;;;;;;;11.73;7.57;;;;;;;;;;4964947;28;20205;-64
2022/01/23 16:36:03;;;;;;;13.13;8.50;;;;;;;;;;4970142;28;20208;-64
2022/01/23 16:38:30;;;;;;;10.40;7.70;;;;;;;;;;4975546;28;20219;-66
2022/01/23 16:40:58;;;;;;;13.10;8.70;;;;;;;;;;4955270;28;20241;-66
2022/01/23 16:43:26;;;;;;;17.30;11.07;;;;;;;;;;4972515;28;20220;-65
2022/01/23 16:45:54;;;;;;;10.37;8.00;;;;;;;;;;4969412;28;20232;-64
2022/01/23 16:48:22;;;;;;;14.30;10.83;;;;;;;;;;4955304;28;20217;-65
2022/01/23 16:50:54;;;;;;;28.37;16.77;;;;;;;;;;4951835;28;20245;-65
2022/01/23 16:53:21;;;;;;;20.93;13.77;;;;;;;;;;4959369;28;20651;-65
2022/01/23 16:55:56;;;;;;;24.13;15.57;;;;;;;;;;4970395;28;20200;-66
2022/01/23 16:58:27;;;;;;;18.93;12.40;;;;;;;;;;4961943;28;20251;-66
2022/01/23 17:00:55;;;;;;;31.20;16.93;;;;;;;;;;4959158;28;20240;-64
2022/01/23 17:03:23;;;;;;;63.17;34.00;;;;;;;;;;4962702;28;20208;-64
2022/01/23 17:05:51;;;;;;;29.57;18.27;;;;;;;;;;4968440;28;20205;-65
2022/01/23 17:08:18;;;;;;;22.73;14.03;;;;;;;;;;4971727;28;20259;-65
2022/01/23 17:10:47;;;;;;;20.60;13.60;;;;;;;;;;4966339;28;20252;-64
2022/01/23 17:13:14;;;;;;;11.20;8.80;;;;;;;;;;4955612;28;20255;-64
2022/01/23 17:15:43;;;;;;;14.17;10.27;;;;;;;;;;4945859;28;20214;-65
2022/01/23 17:18:11;;;;;;;26.20;16.87;;;;;;;;;;4957950;28;20265;-65
2022/01/23 17:20:39;;;;;;;25.47;17.10;;;;;;;;;;4957402;28;20221;-64
2022/01/23 17:23:07;;;;;;;12.53;9.70;;;;;;;;;;4958377;28;20212;-65
2022/01/23 17:25:34;;;;;;;14.67;10.30;;;;;;;;;;4960103;28;20209;-65
2022/01/23 17:28:02;;;;;;;18.67;13.50;;;;;;;;;;4961316;28;20206;-63
2022/01/23 17:30:29;;;;;;;9.67;8.07;;;;;;;;;;4976040;28;20240;-64
2022/01/23 17:32:57;;;;;;;13.20;9.90;;;;;;;;;;4965442;28;20205;-64
2022/01/23 17:35:25;;;;;;;11.63;9.43;;;;;;;;;;4966724;28;20259;-64
2022/01/23 17:37:52;;;;;;;12.30;9.77;;;;;;;;;;4967526;28;20212;-64
2022/01/23 17:40:20;;;;;;;14.67;10.73;;;;;;;;;;4969103;28;20229;-64
2022/01/23 17:42:49;;;;;;;20.77;13.57;;;;;;;;;;4969866;28;20256;-64
2022/01/23 17:45:24;;;;;;;30.20;19.00;;;;;;;;;;4963534;28;20208;-63
2022/01/23 17:50:29;;;;;;;19.43;13.60;;;;;;;;;;4969224;28;20274;-64
2022/01/23 17:52:57;;;;;;;44.77;28.57;;;;;;;;;;4965791;28;20284;-65
2022/01/23 17:55:24;;;;;;;32.47;21.47;;;;;;;;;;4973875;28;20212;-63
2022/01/23 17:57:52;;;;;;;24.53;15.97;;;;;;;;;;4969168;28;20206;-65
2022/01/23 18:00:20;;;;;;;28.30;19.13;;;;;;;;;;4973121;28;20287;-65
2022/01/23 18:02:53;;;;;;;39.50;24.63;;;;;;;;;;4967953;28;20291;-65
2022/01/23 18:05:21;;;;;;;41.03;25.43;;;;;;;;;;4966534;28;20249;-65
2022/01/23 18:07:48;;;;;;;34.13;18.23;;;;;;;;;;4972515;28;20216;-65
2022/01/23 18:10:15;;;;;;;56.03;28.83;;;;;;;;;;4973816;28;20228;-65
2022/01/23 18:12:50;;;;;;;53.53;28.93;;;;;;;;;;4965474;28;20220;-63
2022/01/23 18:15:17;;;;;;;34.97;20.00;;;;;;;;;;4963836;28;20208;-67
2022/01/23 18:17:45;;;;;;;29.37;17.30;;;;;;;;;;4977814;28;20202;-66
2022/01/23 18:20:12;;;;;;;41.47;24.33;;;;;;;;;;4975800;28;20254;-64
2022/01/23 18:22:40;;;;;;;54.07;31.57;;;;;;;;;;4963589;28;20216;-64
2022/01/23 18:25:07;;;;;;;43.80;23.87;;;;;;;;;;4968088;28;20205;-66
2022/01/23 18:27:35;;;;;;;23.93;15.67;;;;;;;;;;4962569;28;20252;-64